createdAt,value
2023-03-22T00:00:00.308Z,56.73
2023-03-22T00:02:27.408Z,57.37
2023-03-22T00:04:54.566Z,57.38
2023-03-22T00:07:21.703Z,57.18
2023-03-22T00:09:48.866Z,57.06
2023-03-22T00:12:15.873Z,57.16
2023-03-22T00:14:43.014Z,57.11
2023-03-22T00:17:09.970Z,57.27
2023-03-22T00:19:37.654Z,57.17
2023-03-22T00:22:06.428Z,57.38
2023-03-22T00:24:33.500Z,57.45
2023-03-22T00:27:01.148Z,57.70
2023-03-22T00:29:28.487Z,57.83
2023-03-22T00:31:56.424Z,57.37
2023-03-22T00:34:23.662Z,57.11
2023-03-22T00:36:52.202Z,56.87
2023-03-22T00:39:20.106Z,55.88
2023-03-22T00:41:47.910Z,55.32
2023-03-22T00:44:14.879Z,55.69
2023-03-22T00:46:41.874Z,56.25
2023-03-22T00:49:09.046Z,56.30
2023-03-22T00:51:36.154Z,55.42
2023-03-22T00:54:03.346Z,56.13
2023-03-22T00:56:30.531Z,56.60
2023-03-22T00:59:08.238Z,56.20
2023-03-22T01:01:35.477Z,55.31
2023-03-22T01:04:03.524Z,55.15
2023-03-22T01:06:35.996Z,54.73
2023-03-22T01:09:03.883Z,54.95
2023-03-22T01:11:30.956Z,54.23
2023-03-22T01:13:57.929Z,54.59
2023-03-22T01:16:24.962Z,55.27
2023-03-22T01:18:52.222Z,54.82
2023-03-22T01:21:19.335Z,55.04
2023-03-22T01:23:46.508Z,55.02
2023-03-22T01:26:13.508Z,54.99
2023-03-22T01:28:40.753Z,55.65
2023-03-22T01:31:07.797Z,54.85
2023-03-22T01:33:34.904Z,53.57
2023-03-22T01:36:01.899Z,54.03
2023-03-22T01:38:29.768Z,55.21
2023-03-22T01:40:59.152Z,55.81
2023-03-22T01:43:28.396Z,54.78
2023-03-22T01:45:57.289Z,54.93
2023-03-22T01:48:37.975Z,55.75
2023-03-22T01:51:19.090Z,56.13
2023-03-22T01:54:12.834Z,56.59
2023-03-22T01:56:41.802Z,56.59
2023-03-22T01:59:15.503Z,56.60
2023-03-22T02:02:03.062Z,56.29
2023-03-22T02:04:36.935Z,56.59
2023-03-22T02:07:15.500Z,57.55
2023-03-22T02:09:45.836Z,56.50
2023-03-22T02:12:28.367Z,56.42
2023-03-22T02:15:25.775Z,56.71
2023-03-22T02:18:11.519Z,56.83
2023-03-22T02:21:04.091Z,56.79
2023-03-22T02:23:37.183Z,57.20
2023-03-22T02:26:23.743Z,57.15
2023-03-22T02:29:01.816Z,56.69
2023-03-22T02:31:58.564Z,56.55
2023-03-22T02:35:07.483Z,56.75
2023-03-22T02:38:22.732Z,55.75
2023-03-22T02:41:08.254Z,55.86
2023-03-22T02:43:46.395Z,56.43
2023-03-22T02:46:25.233Z,56.87
2023-03-22T02:49:28.510Z,56.48
2023-03-22T02:52:32.502Z,56.33
2023-03-22T02:55:20.137Z,56.69
2023-03-22T02:58:00.622Z,57.02
2023-03-22T03:00:28.945Z,57.31
2023-03-22T03:03:11.483Z,57.01
2023-03-22T03:05:43.771Z,57.61
2023-03-22T03:08:14.470Z,57.71
2023-03-22T03:10:42.781Z,57.72
2023-03-22T03:13:16.432Z,57.91
2023-03-22T03:15:46.640Z,57.68
2023-03-22T03:18:40.880Z,56.77
2023-03-22T03:21:30.319Z,56.52
2023-03-22T03:24:14.669Z,56.58
2023-03-22T03:26:52.369Z,56.76
2023-03-22T03:29:30.326Z,57.42
2023-03-22T03:32:28.619Z,58.06
2023-03-22T03:35:07.463Z,58.29
2023-03-22T03:37:47.388Z,58.09
2023-03-22T03:40:29.097Z,57.90
2023-03-22T03:43:02.099Z,58.15
2023-03-22T03:45:31.033Z,58.28
2023-03-22T03:48:01.258Z,58.28
2023-03-22T03:50:28.525Z,58.60
2023-03-22T03:52:56.435Z,58.87
2023-03-22T03:55:25.277Z,59.56
2023-03-22T03:57:52.442Z,59.39
2023-03-22T04:00:20.131Z,59.39
2023-03-22T04:03:14.116Z,59.40
2023-03-22T04:06:01.366Z,59.17
2023-03-22T04:08:30.911Z,59.22
2023-03-22T04:10:58.025Z,59.40
2023-03-22T04:13:25.412Z,59.68
2023-03-22T04:15:57.666Z,59.93
2023-03-22T04:18:25.017Z,61.31
2023-03-22T04:20:53.706Z,61.46
2023-03-22T04:23:22.779Z,61.11
2023-03-22T04:25:50.931Z,61.16
2023-03-22T04:28:28.998Z,60.80
2023-03-22T04:30:57.867Z,61.73
2023-03-22T04:34:05.961Z,61.81
2023-03-22T04:36:51.631Z,62.03
2023-03-22T04:39:29.105Z,62.42
2023-03-22T04:42:35.645Z,62.80
2023-03-22T04:45:16.311Z,62.80
2023-03-22T04:47:47.785Z,63.58
2023-03-22T04:50:15.963Z,63.33
2023-03-22T04:52:50.173Z,63.09
2023-03-22T04:55:17.574Z,63.65
2023-03-22T04:57:45.625Z,63.94
2023-03-22T05:00:13.134Z,64.14
2023-03-22T05:02:41.501Z,64.59
2023-03-22T05:05:16.311Z,64.70
2023-03-22T05:07:44.152Z,64.63
2023-03-22T05:10:11.343Z,65.19
2023-03-22T05:12:39.663Z,64.93
2023-03-22T05:15:39.152Z,64.87
2023-03-22T05:18:08.288Z,64.76
2023-03-22T05:20:37.021Z,64.04
2023-03-22T05:23:21.220Z,63.49
2023-03-22T05:25:53.695Z,63.76
2023-03-22T05:28:22.306Z,63.60
2023-03-22T05:30:57.849Z,64.61
2023-03-22T05:33:52.288Z,65.59
2023-03-22T05:36:23.079Z,65.63
2023-03-22T05:39:09.220Z,66.21
2023-03-22T05:41:37.010Z,66.20
2023-03-22T05:44:05.402Z,66.57
2023-03-22T05:46:33.865Z,66.36
2023-03-22T05:49:27.392Z,66.77
2023-03-22T05:51:55.505Z,67.33
2023-03-22T05:54:25.010Z,67.46
2023-03-22T05:56:55.627Z,67.20
2023-03-22T05:59:23.433Z,66.57
2023-03-22T06:01:51.247Z,65.89
2023-03-22T06:04:25.158Z,66.26
2023-03-22T06:06:58.237Z,66.89
2023-03-22T06:09:43.441Z,67.52
2023-03-22T06:12:16.232Z,67.69
2023-03-22T06:14:47.573Z,67.48
2023-03-22T06:17:47.121Z,67.86
2023-03-22T06:20:19.664Z,67.96
2023-03-22T06:22:53.259Z,68.98
2023-03-22T06:25:20.384Z,68.63
2023-03-22T06:27:48.795Z,68.51
2023-03-22T06:30:16.083Z,68.72
2023-03-22T06:33:05.478Z,68.78
2023-03-22T06:35:36.015Z,68.84
2023-03-22T06:38:04.586Z,67.74
2023-03-22T06:40:32.262Z,67.34
2023-03-22T06:43:01.999Z,67.31
2023-03-22T06:45:33.674Z,68.52
2023-03-22T06:48:02.531Z,67.90
2023-03-22T06:50:59.879Z,67.05
2023-03-22T06:53:32.551Z,67.10
2023-03-22T06:55:59.887Z,69.14
2023-03-22T06:58:28.076Z,70.18
2023-03-22T07:00:58.461Z,70.49
2023-03-22T07:03:27.067Z,70.79
2023-03-22T07:06:08.489Z,70.89
2023-03-22T07:08:39.136Z,70.79
2023-03-22T07:11:08.020Z,70.92
2023-03-22T07:13:35.705Z,70.50
2023-03-22T07:16:09.881Z,70.48
2023-03-22T07:18:51.254Z,69.27
2023-03-22T07:21:18.340Z,69.13
2023-03-22T07:23:50.467Z,69.01
2023-03-22T07:26:19.783Z,68.92
2023-03-22T07:28:49.394Z,68.27
2023-03-22T07:31:18.790Z,67.68
2023-03-22T07:34:07.004Z,67.94
2023-03-22T07:36:57.123Z,68.01
2023-03-22T07:39:25.069Z,67.81
2023-03-22T07:41:52.796Z,68.19
2023-03-22T07:44:40.177Z,68.34
2023-03-22T07:47:20.310Z,68.38
2023-03-22T07:50:12.658Z,68.36
2023-03-22T07:52:41.440Z,68.51
2023-03-22T07:55:11.196Z,68.91
2023-03-22T07:57:39.179Z,69.48
2023-03-22T08:00:08.346Z,69.61
2023-03-22T08:02:54.195Z,69.32
2023-03-22T08:05:42.229Z,69.00
2023-03-22T08:08:13.707Z,68.89
2023-03-22T08:10:41.473Z,69.21
2023-03-22T08:13:08.664Z,69.29
2023-03-22T08:15:37.658Z,68.62
2023-03-22T08:18:05.038Z,68.23
2023-03-22T08:20:35.905Z,67.44
2023-03-22T08:23:11.521Z,67.70
2023-03-22T08:25:57.523Z,68.45
2023-03-22T08:28:24.809Z,68.28
2023-03-22T08:30:52.367Z,68.80
2023-03-22T08:33:23.819Z,69.10
2023-03-22T08:35:52.227Z,70.00
2023-03-22T08:38:20.029Z,69.96
2023-03-22T08:40:51.304Z,70.10
2023-03-22T08:43:22.276Z,69.84
2023-03-22T08:45:49.353Z,69.96
2023-03-22T08:48:19.897Z,69.24
2023-03-22T08:51:04.823Z,68.88
2023-03-22T08:53:52.590Z,68.93
2023-03-22T08:56:38.658Z,69.41
2023-03-22T08:59:22.985Z,69.69
2023-03-22T09:01:59.850Z,69.41
2023-03-22T09:04:27.417Z,71.08
2023-03-22T09:06:55.633Z,71.74
2023-03-22T09:09:22.769Z,71.90
2023-03-22T09:11:52.586Z,71.99
2023-03-22T09:14:19.706Z,71.25
2023-03-22T09:16:48.425Z,70.41
2023-03-22T09:19:15.803Z,70.14
2023-03-22T09:21:43.041Z,69.76
2023-03-22T09:24:17.848Z,70.48
2023-03-22T09:26:50.729Z,72.00
2023-03-22T09:29:19.716Z,71.68
2023-03-22T09:31:49.127Z,71.72
2023-03-22T09:34:20.059Z,72.36
2023-03-22T09:36:47.641Z,72.20
2023-03-22T09:39:20.800Z,72.23
2023-03-22T09:42:06.329Z,72.32
2023-03-22T09:44:45.417Z,73.53
2023-03-22T09:47:44.635Z,73.91
2023-03-22T09:50:31.742Z,73.45
2023-03-22T09:53:00.191Z,73.95
2023-03-22T09:55:42.626Z,74.76
2023-03-22T09:58:26.215Z,75.20
2023-03-22T10:00:58.190Z,74.26
2023-03-22T10:03:43.712Z,74.77
2023-03-22T10:06:30.802Z,76.06
2023-03-22T10:09:14.658Z,76.12
2023-03-22T10:12:07.203Z,75.88
2023-03-22T10:14:46.917Z,75.58
2023-03-22T10:17:17.696Z,75.44
2023-03-22T10:20:24.107Z,73.78
2023-03-22T10:22:54.273Z,74.56
2023-03-22T10:25:27.437Z,73.03
2023-03-22T10:27:54.825Z,73.17
2023-03-22T10:30:24.951Z,74.33
2023-03-22T10:33:02.817Z,74.57
2023-03-22T10:35:31.307Z,75.02
2023-03-22T10:38:02.391Z,74.50
2023-03-22T10:40:33.583Z,74.10
2023-03-22T10:43:08.541Z,76.40
2023-03-22T10:45:37.047Z,71.26
2023-03-22T10:48:33.712Z,68.76
2023-03-22T10:51:01.602Z,69.77
2023-03-22T10:53:42.680Z,69.76
2023-03-22T10:56:27.877Z,67.29
2023-03-22T10:58:55.463Z,68.00
2023-03-22T11:01:27.179Z,69.98
2023-03-22T11:04:07.219Z,68.54
2023-03-22T11:06:38.582Z,69.57
2023-03-22T11:09:15.887Z,70.77
2023-03-22T11:11:51.716Z,72.45
2023-03-22T11:14:37.198Z,72.40
2023-03-22T11:17:08.235Z,73.20
2023-03-22T11:19:53.849Z,74.16
2023-03-22T11:22:26.216Z,75.14
2023-03-22T11:24:56.749Z,75.46
2023-03-22T11:27:27.086Z,74.34
2023-03-22T11:29:58.603Z,73.28
2023-03-22T11:32:36.892Z,72.28
2023-03-22T11:35:17.787Z,71.07
2023-03-22T11:37:49.749Z,68.20
2023-03-22T11:40:26.819Z,68.52
2023-03-22T11:43:03.177Z,68.78
2023-03-22T11:45:33.201Z,69.24
2023-03-22T11:48:07.293Z,69.91
2023-03-22T11:50:38.185Z,70.81
2023-03-22T11:53:12.276Z,72.94
2023-03-22T11:55:39.643Z,73.19
2023-03-22T11:58:07.065Z,72.97
2023-03-22T12:00:38.048Z,71.23
2023-03-22T12:03:06.532Z,71.16
2023-03-22T12:05:43.072Z,70.17
2023-03-22T12:08:22.112Z,70.12
2023-03-22T12:10:54.438Z,71.45
2023-03-22T12:13:27.244Z,72.91
2023-03-22T12:16:01.032Z,73.22
2023-03-22T12:18:43.396Z,73.27
2023-03-22T12:21:13.777Z,73.38
2023-03-22T12:23:40.875Z,74.38
2023-03-22T12:26:20.524Z,73.89
2023-03-22T12:29:01.956Z,73.41
2023-03-22T12:31:33.272Z,73.45
2023-03-22T12:34:05.592Z,73.46
2023-03-22T12:36:43.168Z,73.26
2023-03-22T12:39:23.352Z,73.26
2023-03-22T12:41:54.350Z,73.34
2023-03-22T12:44:27.349Z,73.86
2023-03-22T12:47:01.468Z,74.89
2023-03-22T12:49:34.914Z,74.95
2023-03-22T12:52:34.888Z,74.66
2023-03-22T12:55:22.107Z,73.55
2023-03-22T12:57:52.685Z,73.41
2023-03-22T13:00:22.027Z,72.99
2023-03-22T13:03:10.515Z,72.99
2023-03-22T13:05:38.221Z,72.33
2023-03-22T13:08:05.921Z,71.99
2023-03-22T13:10:33.116Z,71.91
2023-03-22T13:13:24.292Z,71.68
2023-03-22T13:16:00.029Z,71.45
2023-03-22T13:18:36.488Z,71.34
2023-03-22T13:21:14.542Z,71.30
2023-03-22T13:24:06.203Z,71.33
2023-03-22T13:26:47.692Z,71.56
2023-03-22T13:29:24.731Z,71.90
2023-03-22T13:31:51.829Z,71.64
2023-03-22T13:34:21.572Z,71.53
2023-03-22T13:36:55.186Z,70.29
2023-03-22T13:39:25.576Z,70.88
2023-03-22T13:42:23.259Z,72.01
2023-03-22T13:45:02.625Z,72.44
2023-03-22T13:47:32.177Z,72.65
2023-03-22T13:50:11.390Z,73.61
2023-03-22T13:52:46.347Z,73.88
2023-03-22T13:55:54.284Z,73.38
2023-03-22T13:58:31.143Z,74.46
2023-03-22T14:00:58.765Z,74.67
2023-03-22T14:03:36.735Z,74.50
2023-03-22T14:06:26.142Z,74.02
2023-03-22T14:08:58.782Z,73.45
2023-03-22T14:11:52.263Z,73.83
2023-03-22T14:14:28.845Z,73.53
2023-03-22T14:17:22.253Z,73.41
2023-03-22T14:19:50.719Z,72.93
